Terminal Aerodrome Forecast
Issued by NWS Wilmington, OH

Current Version | Previous Version | Graphics & Text | Print | Product List | Glossary On
Versions: 1 2 3 4 5 6 7 8 9 10 11 12 13
750
FTUS41 KILN 181720
TAFILN
TAF
KILN 181720Z 1818/1918 27012G19KT P6SM BKN040
     FM182300 25005KT P6SM FEW035 SCT250
     FM190600 21005KT P6SM FEW035 SCT250
     FM191500 25010G18KT P6SM VCSH BKN040=

USA.gov is the U.S. government's official web portal to all federal, state and local government web resources and services.